sensor_id;sensor_type;location;lat;lon;timestamp;temperature;humidity
62464;SHT31;48512;48.552;9.380;2023-03-05T00:02:15;2.55;77.42
62464;SHT31;48512;48.552;9.380;2023-03-05T00:04:41;2.52;76.79
62464;SHT31;48512;48.552;9.380;2023-03-05T00:07:09;2.44;77.12
62464;SHT31;48512;48.552;9.380;2023-03-05T00:09:39;2.49;77.07
62464;SHT31;48512;48.552;9.380;2023-03-05T00:12:05;2.48;77.30
62464;SHT31;48512;48.552;9.380;2023-03-05T00:14:31;2.52;77.24
62464;SHT31;48512;48.552;9.380;2023-03-05T00:16:57;2.61;77.19
62464;SHT31;48512;48.552;9.380;2023-03-05T00:19:23;2.63;76.98
62464;SHT31;48512;48.552;9.380;2023-03-05T00:21:51;2.65;76.95
62464;SHT31;48512;48.552;9.380;2023-03-05T00:24:17;2.62;77.22
62464;SHT31;48512;48.552;9.380;2023-03-05T00:26:43;2.62;77.22
62464;SHT31;48512;48.552;9.380;2023-03-05T00:29:14;2.58;77.54
62464;SHT31;48512;48.552;9.380;2023-03-05T00:31:42;2.58;77.63
62464;SHT31;48512;48.552;9.380;2023-03-05T00:34:12;2.61;77.62
62464;SHT31;48512;48.552;9.380;2023-03-05T00:36:42;2.65;77.55
62464;SHT31;48512;48.552;9.380;2023-03-05T00:39:08;2.63;77.54
62464;SHT31;48512;48.552;9.380;2023-03-05T00:41:34;2.55;77.81
62464;SHT31;48512;48.552;9.380;2023-03-05T00:43:59;2.63;77.62
62464;SHT31;48512;48.552;9.380;2023-03-05T00:46:25;2.68;77.48
62464;SHT31;48512;48.552;9.380;2023-03-05T00:48:52;2.71;77.22
62464;SHT31;48512;48.552;9.380;2023-03-05T00:51:18;2.75;77.03
62464;SHT31;48512;48.552;9.380;2023-03-05T00:53:44;2.72;77.10
62464;SHT31;48512;48.552;9.380;2023-03-05T00:56:10;2.66;76.75
62464;SHT31;48512;48.552;9.380;2023-03-05T00:58:36;2.83;75.80
62464;SHT31;48512;48.552;9.380;2023-03-05T01:01:02;2.80;76.40
62464;SHT31;48512;48.552;9.380;2023-03-05T01:03:30;2.72;77.12
62464;SHT31;48512;48.552;9.380;2023-03-05T01:05:59;2.63;77.23
62464;SHT31;48512;48.552;9.380;2023-03-05T01:08:25;2.63;76.97
62464;SHT31;48512;48.552;9.380;2023-03-05T01:10:53;2.69;76.81
62464;SHT31;48512;48.552;9.380;2023-03-05T01:13:19;2.73;76.85
62464;SHT31;48512;48.552;9.380;2023-03-05T01:15:45;2.76;76.51
62464;SHT31;48512;48.552;9.380;2023-03-05T01:18:13;2.66;76.81
62464;SHT31;48512;48.552;9.380;2023-03-05T01:20:44;2.62;77.26
62464;SHT31;48512;48.552;9.380;2023-03-05T01:23:10;2.71;77.24
62464;SHT31;48512;48.552;9.380;2023-03-05T01:25:35;2.72;77.31
62464;SHT31;48512;48.552;9.380;2023-03-05T01:28:03;2.78;76.89
62464;SHT31;48512;48.552;9.380;2023-03-05T01:30:31;2.78;76.85
62464;SHT31;48512;48.552;9.380;2023-03-05T01:32:57;2.73;76.40
62464;SHT31;48512;48.552;9.380;2023-03-05T01:35:24;2.79;76.23
62464;SHT31;48512;48.552;9.380;2023-03-05T01:37:51;2.73;76.08
62464;SHT31;48512;48.552;9.380;2023-03-05T01:40:25;2.83;75.40
62464;SHT31;48512;48.552;9.380;2023-03-05T01:43:05;2.73;75.39
62464;SHT31;48512;48.552;9.380;2023-03-05T01:45:39;2.83;75.42
62464;SHT31;48512;48.552;9.380;2023-03-05T01:48:26;2.79;75.76
62464;SHT31;48512;48.552;9.380;2023-03-05T01:50:56;2.79;75.94
62464;SHT31;48512;48.552;9.380;2023-03-05T01:53:22;2.75;76.57
62464;SHT31;48512;48.552;9.380;2023-03-05T01:55:47;2.88;76.53
62464;SHT31;48512;48.552;9.380;2023-03-05T01:58:13;2.85;76.52
62464;SHT31;48512;48.552;9.380;2023-03-05T02:00:43;2.86;76.30
62464;SHT31;48512;48.552;9.380;2023-03-05T02:03:12;2.85;76.51
62464;SHT31;48512;48.552;9.380;2023-03-05T02:05:40;2.93;76.24
62464;SHT31;48512;48.552;9.380;2023-03-05T02:08:10;2.93;76.21
62464;SHT31;48512;48.552;9.380;2023-03-05T02:10:48;2.96;76.67
62464;SHT31;48512;48.552;9.380;2023-03-05T02:13:18;2.99;76.87
62464;SHT31;48512;48.552;9.380;2023-03-05T02:15:44;2.99;76.78
62464;SHT31;48512;48.552;9.380;2023-03-05T02:18:11;3.01;76.80
62464;SHT31;48512;48.552;9.380;2023-03-05T02:23:18;2.90;76.98
62464;SHT31;48512;48.552;9.380;2023-03-05T02:25:52;2.95;76.84
62464;SHT31;48512;48.552;9.380;2023-03-05T02:28:22;2.96;76.89
62464;SHT31;48512;48.552;9.380;2023-03-05T02:30:50;2.95;77.28
62464;SHT31;48512;48.552;9.380;2023-03-05T02:33:16;2.90;77.18
62464;SHT31;48512;48.552;9.380;2023-03-05T02:35:44;2.85;76.94
62464;SHT31;48512;48.552;9.380;2023-03-05T02:38:16;2.89;76.81
62464;SHT31;48512;48.552;9.380;2023-03-05T02:40:43;2.95;76.89
62464;SHT31;48512;48.552;9.380;2023-03-05T02:43:10;3.01;76.82
62464;SHT31;48512;48.552;9.380;2023-03-05T02:45:36;3.01;77.37
62464;SHT31;48512;48.552;9.380;2023-03-05T02:48:01;2.97;77.01
62464;SHT31;48512;48.552;9.380;2023-03-05T02:50:30;2.92;77.01
62464;SHT31;48512;48.552;9.380;2023-03-05T02:52:58;2.97;76.62
62464;SHT31;48512;48.552;9.380;2023-03-05T02:55:24;2.93;76.44
62464;SHT31;48512;48.552;9.380;2023-03-05T02:57:50;2.97;76.28
62464;SHT31;48512;48.552;9.380;2023-03-05T03:00:16;3.00;76.34
62464;SHT31;48512;48.552;9.380;2023-03-05T03:02:42;3.04;75.92
62464;SHT31;48512;48.552;9.380;2023-03-05T03:05:08;3.07;75.51
62464;SHT31;48512;48.552;9.380;2023-03-05T03:07:36;3.06;75.30
62464;SHT31;48512;48.552;9.380;2023-03-05T03:10:04;3.11;75.29
62464;SHT31;48512;48.552;9.380;2023-03-05T03:12:37;3.03;75.77
62464;SHT31;48512;48.552;9.380;2023-03-05T03:15:09;3.03;76.02
62464;SHT31;48512;48.552;9.380;2023-03-05T03:17:35;3.04;75.95
62464;SHT31;48512;48.552;9.380;2023-03-05T03:20:03;2.92;76.37
62464;SHT31;48512;48.552;9.380;2023-03-05T03:22:29;2.90;76.06
62464;SHT31;48512;48.552;9.380;2023-03-05T03:24:54;2.97;75.83
62464;SHT31;48512;48.552;9.380;2023-03-05T03:27:21;2.97;75.68
62464;SHT31;48512;48.552;9.380;2023-03-05T03:29:48;2.95;75.80
62464;SHT31;48512;48.552;9.380;2023-03-05T03:32:14;2.99;76.01
62464;SHT31;48512;48.552;9.380;2023-03-05T03:34:39;3.00;75.79
62464;SHT31;48512;48.552;9.380;2023-03-05T03:37:05;3.01;75.65
62464;SHT31;48512;48.552;9.380;2023-03-05T03:39:33;2.99;75.59
62464;SHT31;48512;48.552;9.380;2023-03-05T03:41:58;2.92;76.13
62464;SHT31;48512;48.552;9.380;2023-03-05T03:44:23;2.89;76.69
62464;SHT31;48512;48.552;9.380;2023-03-05T03:46:49;2.89;76.86
62464;SHT31;48512;48.552;9.380;2023-03-05T03:49:25;2.93;76.86
62464;SHT31;48512;48.552;9.380;2023-03-05T03:51:51;3.01;76.89
62464;SHT31;48512;48.552;9.380;2023-03-05T03:54:19;3.04;76.60
62464;SHT31;48512;48.552;9.380;2023-03-05T03:56:44;2.99;76.62
62464;SHT31;48512;48.552;9.380;2023-03-05T03:59:12;2.92;76.85
62464;SHT31;48512;48.552;9.380;2023-03-05T04:01:38;2.93;76.79
62464;SHT31;48512;48.552;9.380;2023-03-05T04:04:06;3.00;76.57
62464;SHT31;48512;48.552;9.380;2023-03-05T04:06:35;2.96;76.33
62464;SHT31;48512;48.552;9.380;2023-03-05T04:09:00;2.85;76.58
62464;SHT31;48512;48.552;9.380;2023-03-05T04:11:26;2.78;76.71
62464;SHT31;48512;48.552;9.380;2023-03-05T04:13:51;2.79;76.76
62464;SHT31;48512;48.552;9.380;2023-03-05T04:16:17;2.83;76.72
62464;SHT31;48512;48.552;9.380;2023-03-05T04:18:44;2.90;76.70
62464;SHT31;48512;48.552;9.380;2023-03-05T04:21:09;2.86;76.96
62464;SHT31;48512;48.552;9.380;2023-03-05T04:23:37;2.89;77.04
62464;SHT31;48512;48.552;9.380;2023-03-05T04:26:03;2.93;76.98
62464;SHT31;48512;48.552;9.380;2023-03-05T04:28:29;2.97;77.16
62464;SHT31;48512;48.552;9.380;2023-03-05T04:30:54;2.93;77.63
62464;SHT31;48512;48.552;9.380;2023-03-05T04:33:20;2.95;77.71
62464;SHT31;48512;48.552;9.380;2023-03-05T04:35:45;2.93;77.49
62464;SHT31;48512;48.552;9.380;2023-03-05T04:38:11;2.96;77.32
62464;SHT31;48512;48.552;9.380;2023-03-05T04:40:37;2.95;77.63
62464;SHT31;48512;48.552;9.380;2023-03-05T04:43:03;2.93;78.18
62464;SHT31;48512;48.552;9.380;2023-03-05T04:45:29;2.85;78.26
62464;SHT31;48512;48.552;9.380;2023-03-05T04:47:54;2.83;78.34
62464;SHT31;48512;48.552;9.380;2023-03-05T04:50:22;2.96;78.18
62464;SHT31;48512;48.552;9.380;2023-03-05T04:52:48;2.90;78.03
62464;SHT31;48512;48.552;9.380;2023-03-05T04:55:17;2.95;77.85
62464;SHT31;48512;48.552;9.380;2023-03-05T04:57:43;2.97;77.68
62464;SHT31;48512;48.552;9.380;2023-03-05T05:00:11;2.93;77.67
62464;SHT31;48512;48.552;9.380;2023-03-05T05:02:44;2.90;78.38
62464;SHT31;48512;48.552;9.380;2023-03-05T05:05:12;2.93;78.50
62464;SHT31;48512;48.552;9.380;2023-03-05T05:07:40;2.99;78.44
62464;SHT31;48512;48.552;9.380;2023-03-05T05:10:06;2.97;78.78
62464;SHT31;48512;48.552;9.380;2023-03-05T05:12:32;3.03;78.76
62464;SHT31;48512;48.552;9.380;2023-03-05T05:14:58;3.37;77.05
62464;SHT31;48512;48.552;9.380;2023-03-05T05:17:25;3.11;77.33
62464;SHT31;48512;48.552;9.380;2023-03-05T05:19:55;3.01;77.95
62464;SHT31;48512;48.552;9.380;2023-03-05T05:22:22;2.95;78.78
62464;SHT31;48512;48.552;9.380;2023-03-05T05:24:50;2.92;79.39
62464;SHT31;48512;48.552;9.380;2023-03-05T05:27:15;2.93;79.29
62464;SHT31;48512;48.552;9.380;2023-03-05T05:29:40;2.89;79.16
62464;SHT31;48512;48.552;9.380;2023-03-05T05:32:06;2.85;79.54
62464;SHT31;48512;48.552;9.380;2023-03-05T05:34:32;2.80;79.35
62464;SHT31;48512;48.552;9.380;2023-03-05T05:36:57;2.71;79.23
62464;SHT31;48512;48.552;9.380;2023-03-05T05:39:22;2.71;79.69
62464;SHT31;48512;48.552;9.380;2023-03-05T05:41:51;2.72;79.94
62464;SHT31;48512;48.552;9.380;2023-03-05T05:44:19;2.72;80.84
62464;SHT31;48512;48.552;9.380;2023-03-05T05:46:44;2.79;80.58
62464;SHT31;48512;48.552;9.380;2023-03-05T05:49:10;2.76;80.55
62464;SHT31;48512;48.552;9.380;2023-03-05T05:51:36;2.85;80.19
62464;SHT31;48512;48.552;9.380;2023-03-05T05:54:08;2.83;80.12
62464;SHT31;48512;48.552;9.380;2023-03-05T05:56:34;2.76;80.41
62464;SHT31;48512;48.552;9.380;2023-03-05T05:58:59;2.79;80.25
62464;SHT31;48512;48.552;9.380;2023-03-05T06:01:29;2.71;80.87
62464;SHT31;48512;48.552;9.380;2023-03-05T06:03:55;2.71;81.50
62464;SHT31;48512;48.552;9.380;2023-03-05T06:06:23;2.79;81.25
62464;SHT31;48512;48.552;9.380;2023-03-05T06:08:49;2.83;81.01
62464;SHT31;48512;48.552;9.380;2023-03-05T06:11:15;2.85;80.88
62464;SHT31;48512;48.552;9.380;2023-03-05T06:13:40;2.90;81.08
62464;SHT31;48512;48.552;9.380;2023-03-05T06:16:12;2.90;81.10
62464;SHT31;48512;48.552;9.380;2023-03-05T06:18:40;2.88;80.83
62464;SHT31;48512;48.552;9.380;2023-03-05T06:21:08;2.83;81.13
62464;SHT31;48512;48.552;9.380;2023-03-05T06:23:34;2.80;81.12
62464;SHT31;48512;48.552;9.380;2023-03-05T06:26:02;2.82;80.55
62464;SHT31;48512;48.552;9.380;2023-03-05T06:28:31;2.83;80.38
62464;SHT31;48512;48.552;9.380;2023-03-05T06:31:13;2.88;80.16
62464;SHT31;48512;48.552;9.380;2023-03-05T06:33:40;2.89;80.14
62464;SHT31;48512;48.552;9.380;2023-03-05T06:36:08;2.93;80.08
62464;SHT31;48512;48.552;9.380;2023-03-05T06:38:35;2.89;79.91
62464;SHT31;48512;48.552;9.380;2023-03-05T06:41:02;2.85;80.11
62464;SHT31;48512;48.552;9.380;2023-03-05T06:43:31;2.78;80.34
62464;SHT31;48512;48.552;9.380;2023-03-05T06:46:07;2.83;80.06
62464;SHT31;48512;48.552;9.380;2023-03-05T06:48:33;2.85;79.93
62464;SHT31;48512;48.552;9.380;2023-03-05T06:50:59;2.73;80.31
62464;SHT31;48512;48.552;9.380;2023-03-05T06:53:24;2.69;80.53
62464;SHT31;48512;48.552;9.380;2023-03-05T06:55:51;2.79;80.47
62464;SHT31;48512;48.552;9.380;2023-03-05T06:58:17;2.79;80.40
62464;SHT31;48512;48.552;9.380;2023-03-05T07:00:43;2.82;80.39
62464;SHT31;48512;48.552;9.380;2023-03-05T07:03:09;2.90;80.35
62464;SHT31;48512;48.552;9.380;2023-03-05T07:05:41;2.95;80.16
62464;SHT31;48512;48.552;9.380;2023-03-05T07:08:07;2.93;80.00
62464;SHT31;48512;48.552;9.380;2023-03-05T07:10:40;2.96;79.81
62464;SHT31;48512;48.552;9.380;2023-03-05T07:13:08;2.92;80.37
62464;SHT31;48512;48.552;9.380;2023-03-05T07:15:37;2.95;80.42
62464;SHT31;48512;48.552;9.380;2023-03-05T07:18:02;2.92;80.48
62464;SHT31;48512;48.552;9.380;2023-03-05T07:20:28;2.99;80.18
62464;SHT31;48512;48.552;9.380;2023-03-05T07:22:54;2.96;80.45
62464;SHT31;48512;48.552;9.380;2023-03-05T07:25:20;3.00;80.46
62464;SHT31;48512;48.552;9.380;2023-03-05T07:27:46;3.04;80.50
62464;SHT31;48512;48.552;9.380;2023-03-05T07:30:13;3.13;80.34
62464;SHT31;48512;48.552;9.380;2023-03-05T07:32:39;3.07;80.53
62464;SHT31;48512;48.552;9.380;2023-03-05T07:35:07;3.17;80.03
62464;SHT31;48512;48.552;9.380;2023-03-05T07:37:33;3.09;80.18
62464;SHT31;48512;48.552;9.380;2023-03-05T07:39:59;3.07;80.23
62464;SHT31;48512;48.552;9.380;2023-03-05T07:42:28;3.09;80.13
62464;SHT31;48512;48.552;9.380;2023-03-05T07:44:56;3.14;80.12
62464;SHT31;48512;48.552;9.380;2023-03-05T07:47:22;3.16;79.94
62464;SHT31;48512;48.552;9.380;2023-03-05T07:49:48;3.27;79.59
62464;SHT31;48512;48.552;9.380;2023-03-05T07:52:14;3.24;79.98
62464;SHT31;48512;48.552;9.380;2023-03-05T07:54:42;3.30;79.87
62464;SHT31;48512;48.552;9.380;2023-03-05T07:57:09;3.39;79.61
62464;SHT31;48512;48.552;9.380;2023-03-05T07:59:37;3.47;79.31
62464;SHT31;48512;48.552;9.380;2023-03-05T08:02:10;3.52;79.10
62464;SHT31;48512;48.552;9.380;2023-03-05T08:04:40;3.59;78.64
62464;SHT31;48512;48.552;9.380;2023-03-05T08:07:09;3.54;78.43
62464;SHT31;48512;48.552;9.380;2023-03-05T08:09:35;3.55;78.42
62464;SHT31;48512;48.552;9.380;2023-03-05T08:12:01;3.64;77.93
62464;SHT31;48512;48.552;9.380;2023-03-05T08:14:33;3.61;77.90
62464;SHT31;48512;48.552;9.380;2023-03-05T08:16:58;3.64;77.98
62464;SHT31;48512;48.552;9.380;2023-03-05T08:19:24;3.61;77.93
62464;SHT31;48512;48.552;9.380;2023-03-05T08:21:50;3.62;77.82
62464;SHT31;48512;48.552;9.380;2023-03-05T08:24:17;3.61;77.92
62464;SHT31;48512;48.552;9.380;2023-03-05T08:26:44;3.62;78.03
62464;SHT31;48512;48.552;9.380;2023-03-05T08:29:10;3.68;77.85
62464;SHT31;48512;48.552;9.380;2023-03-05T08:31:36;3.75;77.59
62464;SHT31;48512;48.552;9.380;2023-03-05T08:34:03;3.81;77.95
62464;SHT31;48512;48.552;9.380;2023-03-05T08:36:29;3.71;78.66
62464;SHT31;48512;48.552;9.380;2023-03-05T08:38:54;3.76;78.52
62464;SHT31;48512;48.552;9.380;2023-03-05T08:41:20;3.86;78.08
62464;SHT31;48512;48.552;9.380;2023-03-05T08:43:46;4.16;79.47
62464;SHT31;48512;48.552;9.380;2023-03-05T08:46:13;4.14;78.21
62464;SHT31;48512;48.552;9.380;2023-03-05T08:48:39;4.21;77.09
62464;SHT31;48512;48.552;9.380;2023-03-05T08:51:12;4.30;76.08
62464;SHT31;48512;48.552;9.380;2023-03-05T08:53:41;4.17;76.46
62464;SHT31;48512;48.552;9.380;2023-03-05T08:56:08;4.21;76.41
62464;SHT31;48512;48.552;9.380;2023-03-05T08:58:34;4.34;75.94
62464;SHT31;48512;48.552;9.380;2023-03-05T09:01:00;4.25;76.02
62464;SHT31;48512;48.552;9.380;2023-03-05T09:03:26;4.21;76.49
62464;SHT31;48512;48.552;9.380;2023-03-05T09:05:51;4.24;76.84
62464;SHT31;48512;48.552;9.380;2023-03-05T09:08:17;4.23;76.97
62464;SHT31;48512;48.552;9.380;2023-03-05T09:10:45;4.34;77.00
62464;SHT31;48512;48.552;9.380;2023-03-05T09:13:11;4.34;76.21
62464;SHT31;48512;48.552;9.380;2023-03-05T09:15:38;4.36;76.47
62464;SHT31;48512;48.552;9.380;2023-03-05T09:18:06;4.44;76.30
62464;SHT31;48512;48.552;9.380;2023-03-05T09:20:34;4.57;75.76
62464;SHT31;48512;48.552;9.380;2023-03-05T09:22:59;4.44;76.13
62464;SHT31;48512;48.552;9.380;2023-03-05T09:25:26;4.51;75.94
62464;SHT31;48512;48.552;9.380;2023-03-05T09:27:53;4.57;75.62
62464;SHT31;48512;48.552;9.380;2023-03-05T09:30:19;4.69;75.20
62464;SHT31;48512;48.552;9.380;2023-03-05T09:32:45;4.72;75.13
62464;SHT31;48512;48.552;9.380;2023-03-05T09:35:11;4.73;75.03
62464;SHT31;48512;48.552;9.380;2023-03-05T09:37:37;4.75;74.96
62464;SHT31;48512;48.552;9.380;2023-03-05T09:40:04;4.68;75.14
62464;SHT31;48512;48.552;9.380;2023-03-05T09:45:26;4.83;74.99
62464;SHT31;48512;48.552;9.380;2023-03-05T09:51:02;4.99;74.40
62464;SHT31;48512;48.552;9.380;2023-03-05T09:53:41;4.97;74.07
62464;SHT31;48512;48.552;9.380;2023-03-05T09:56:27;4.95;73.87
62464;SHT31;48512;48.552;9.380;2023-03-05T09:58:58;4.93;74.20
62464;SHT31;48512;48.552;9.380;2023-03-05T10:01:39;5.06;73.80
62464;SHT31;48512;48.552;9.380;2023-03-05T10:07:50;5.22;73.27
62464;SHT31;48512;48.552;9.380;2023-03-05T10:12:26;5.27;73.53
62464;SHT31;48512;48.552;9.380;2023-03-05T10:14:59;5.26;73.40
62464;SHT31;48512;48.552;9.380;2023-03-05T10:18:17;5.36;73.19
62464;SHT31;48512;48.552;9.380;2023-03-05T10:28:34;5.58;71.35
62464;SHT31;48512;48.552;9.380;2023-03-05T10:31:17;5.55;71.41
62464;SHT31;48512;48.552;9.380;2023-03-05T10:39:56;5.76;71.31
62464;SHT31;48512;48.552;9.380;2023-03-05T10:42:58;5.64;70.50
62464;SHT31;48512;48.552;9.380;2023-03-05T10:45:52;5.79;70.38
62464;SHT31;48512;48.552;9.380;2023-03-05T10:56:11;5.93;69.44
62464;SHT31;48512;48.552;9.380;2023-03-05T10:58:37;5.95;68.98
62464;SHT31;48512;48.552;9.380;2023-03-05T11:04:00;5.92;68.82
62464;SHT31;48512;48.552;9.380;2023-03-05T11:06:42;5.96;68.77
62464;SHT31;48512;48.552;9.380;2023-03-05T11:14:38;6.05;69.44
62464;SHT31;48512;48.552;9.380;2023-03-05T11:17:24;5.91;69.78
62464;SHT31;48512;48.552;9.380;2023-03-05T11:19:53;5.91;69.42
62464;SHT31;48512;48.552;9.380;2023-03-05T11:22:22;5.86;69.69
62464;SHT31;48512;48.552;9.380;2023-03-05T11:25:16;6.10;69.19
62464;SHT31;48512;48.552;9.380;2023-03-05T11:27:49;6.10;68.77
62464;SHT31;48512;48.552;9.380;2023-03-05T11:30:26;6.07;68.80
62464;SHT31;48512;48.552;9.380;2023-03-05T11:33:15;6.05;68.98
62464;SHT31;48512;48.552;9.380;2023-03-05T11:35:44;5.92;68.93
62464;SHT31;48512;48.552;9.380;2023-03-05T11:38:17;6.06;68.64
62464;SHT31;48512;48.552;9.380;2023-03-05T11:40:43;6.05;68.18
62464;SHT31;48512;48.552;9.380;2023-03-05T11:43:15;6.07;67.67
62464;SHT31;48512;48.552;9.380;2023-03-05T11:45:41;6.13;67.73
62464;SHT31;48512;48.552;9.380;2023-03-05T11:48:14;6.16;67.83
62464;SHT31;48512;48.552;9.380;2023-03-05T11:50:43;6.12;67.75
62464;SHT31;48512;48.552;9.380;2023-03-05T11:53:19;6.23;67.50
62464;SHT31;48512;48.552;9.380;2023-03-05T11:58:59;6.22;66.97
62464;SHT31;48512;48.552;9.380;2023-03-05T12:01:30;6.24;68.17
62464;SHT31;48512;48.552;9.380;2023-03-05T12:03:56;6.23;66.79
62464;SHT31;48512;48.552;9.380;2023-03-05T12:07:10;6.23;67.28
62464;SHT31;48512;48.552;9.380;2023-03-05T12:09:39;6.14;67.46
62464;SHT31;48512;48.552;9.380;2023-03-05T12:14:50;6.01;67.86
62464;SHT31;48512;48.552;9.380;2023-03-05T12:17:28;5.92;68.44
62464;SHT31;48512;48.552;9.380;2023-03-05T12:22:36;5.74;69.20
62464;SHT31;48512;48.552;9.380;2023-03-05T12:25:25;5.84;68.93
62464;SHT31;48512;48.552;9.380;2023-03-05T12:27:54;5.86;68.90
62464;SHT31;48512;48.552;9.380;2023-03-05T12:33:01;5.93;68.75
62464;SHT31;48512;48.552;9.380;2023-03-05T12:35:36;5.95;68.57
62464;SHT31;48512;48.552;9.380;2023-03-05T12:51:56;5.81;68.70
62464;SHT31;48512;48.552;9.380;2023-03-05T12:57:04;5.72;68.82
62464;SHT31;48512;48.552;9.380;2023-03-05T13:00:08;5.72;68.96
62464;SHT31;48512;48.552;9.380;2023-03-05T13:02:44;5.74;68.61
62464;SHT31;48512;48.552;9.380;2023-03-05T13:05:24;6.67;78.57
62464;SHT31;48512;48.552;9.380;2023-03-05T13:07:51;6.50;69.15
62464;SHT31;48512;48.552;9.380;2023-03-05T13:10:27;6.32;68.28
62464;SHT31;48512;48.552;9.380;2023-03-05T13:12:57;6.13;67.94
62464;SHT31;48512;48.552;9.380;2023-03-05T13:15:25;6.07;67.93
62464;SHT31;48512;48.552;9.380;2023-03-05T13:17:57;6.05;67.71
62464;SHT31;48512;48.552;9.380;2023-03-05T13:25:35;5.95;67.69
62464;SHT31;48512;48.552;9.380;2023-03-05T13:28:03;5.95;67.63
62464;SHT31;48512;48.552;9.380;2023-03-05T13:30:35;5.92;67.78
62464;SHT31;48512;48.552;9.380;2023-03-05T13:33:05;6.44;77.94
62464;SHT31;48512;48.552;9.380;2023-03-05T13:35:31;8.21;88.29
62464;SHT31;48512;48.552;9.380;2023-03-05T13:37:57;7.51;70.68
62464;SHT31;48512;48.552;9.380;2023-03-05T13:40:27;7.31;69.65
62464;SHT31;48512;48.552;9.380;2023-03-05T13:42:53;6.96;68.73
62464;SHT31;48512;48.552;9.380;2023-03-05T13:45:28;6.75;66.56
62464;SHT31;48512;48.552;9.380;2023-03-05T13:48:00;6.57;67.82
62464;SHT31;48512;48.552;9.380;2023-03-05T13:50:35;6.36;67.38
62464;SHT31;48512;48.552;9.380;2023-03-05T13:53:27;6.20;67.62
62464;SHT31;48512;48.552;9.380;2023-03-05T13:56:00;5.82;68.43
62464;SHT31;48512;48.552;9.380;2023-03-05T14:04:21;5.66;68.00
62464;SHT31;48512;48.552;9.380;2023-03-05T14:09:49;5.62;69.19
62464;SHT31;48512;48.552;9.380;2023-03-05T14:12:36;5.64;69.45
62464;SHT31;48512;48.552;9.380;2023-03-05T14:15:24;5.66;69.61
62464;SHT31;48512;48.552;9.380;2023-03-05T14:18:14;5.55;69.53
62464;SHT31;48512;48.552;9.380;2023-03-05T14:21:07;7.30;80.42
62464;SHT31;48512;48.552;9.380;2023-03-05T14:23:42;8.46;72.41
62464;SHT31;48512;48.552;9.380;2023-03-05T14:28:43;8.74;62.78
62464;SHT31;48512;48.552;9.380;2023-03-05T14:31:17;7.99;63.03
62464;SHT31;48512;48.552;9.380;2023-03-05T14:33:44;7.46;64.76
62464;SHT31;48512;48.552;9.380;2023-03-05T14:36:10;6.81;66.84
62464;SHT31;48512;48.552;9.380;2023-03-05T14:44:45;5.64;70.42
62464;SHT31;48512;48.552;9.380;2023-03-05T14:47:15;5.65;70.63
62464;SHT31;48512;48.552;9.380;2023-03-05T14:49:41;5.74;70.48
62464;SHT31;48512;48.552;9.380;2023-03-05T14:52:07;5.66;70.52
62464;SHT31;48512;48.552;9.380;2023-03-05T14:54:36;5.72;70.52
62464;SHT31;48512;48.552;9.380;2023-03-05T14:57:04;5.71;70.47
62464;SHT31;48512;48.552;9.380;2023-03-05T14:59:30;5.64;70.46
62464;SHT31;48512;48.552;9.380;2023-03-05T15:01:55;5.51;71.15
62464;SHT31;48512;48.552;9.380;2023-03-05T15:04:22;5.41;70.84
62464;SHT31;48512;48.552;9.380;2023-03-05T15:06:48;5.48;71.04
62464;SHT31;48512;48.552;9.380;2023-03-05T15:09:16;5.68;70.36
62464;SHT31;48512;48.552;9.380;2023-03-05T15:11:43;5.61;70.62
62464;SHT31;48512;48.552;9.380;2023-03-05T15:14:09;5.62;70.63
62464;SHT31;48512;48.552;9.380;2023-03-05T15:16:35;5.58;70.70
62464;SHT31;48512;48.552;9.380;2023-03-05T15:19:00;5.59;71.50
62464;SHT31;48512;48.552;9.380;2023-03-05T15:21:28;5.76;75.18
62464;SHT31;48512;48.552;9.380;2023-03-05T15:23:55;5.81;74.10
62464;SHT31;48512;48.552;9.380;2023-03-05T15:26:23;5.81;71.91
62464;SHT31;48512;48.552;9.380;2023-03-05T15:28:48;5.76;71.22
62464;SHT31;48512;48.552;9.380;2023-03-05T15:31:15;5.65;70.86
62464;SHT31;48512;48.552;9.380;2023-03-05T15:33:45;5.62;71.30
62464;SHT31;48512;48.552;9.380;2023-03-05T15:36:13;5.58;71.23
62464;SHT31;48512;48.552;9.380;2023-03-05T15:38:38;5.55;70.89
62464;SHT31;48512;48.552;9.380;2023-03-05T15:41:08;5.41;70.98
62464;SHT31;48512;48.552;9.380;2023-03-05T15:43:36;5.48;71.35
62464;SHT31;48512;48.552;9.380;2023-03-05T15:46:04;5.50;71.45
62464;SHT31;48512;48.552;9.380;2023-03-05T15:48:29;5.54;70.86
62464;SHT31;48512;48.552;9.380;2023-03-05T15:50:54;5.88;76.47
62464;SHT31;48512;48.552;9.380;2023-03-05T15:53:21;5.84;75.22
62464;SHT31;48512;48.552;9.380;2023-03-05T15:55:47;5.86;72.18
62464;SHT31;48512;48.552;9.380;2023-03-05T15:58:14;6.12;75.02
62464;SHT31;48512;48.552;9.380;2023-03-05T16:00:41;5.99;72.53
62464;SHT31;48512;48.552;9.380;2023-03-05T16:03:11;5.93;70.72
62464;SHT31;48512;48.552;9.380;2023-03-05T16:05:37;6.63;78.99
62464;SHT31;48512;48.552;9.380;2023-03-05T16:08:03;7.56;76.73
62464;SHT31;48512;48.552;9.380;2023-03-05T16:10:31;7.23;72.93
62464;SHT31;48512;48.552;9.380;2023-03-05T16:13:02;6.89;70.59
62464;SHT31;48512;48.552;9.380;2023-03-05T16:15:30;6.64;69.98
62464;SHT31;48512;48.552;9.380;2023-03-05T16:18:01;6.41;68.99
62464;SHT31;48512;48.552;9.380;2023-03-05T16:20:28;6.17;68.84
62464;SHT31;48512;48.552;9.380;2023-03-05T16:22:54;6.07;68.31
62464;SHT31;48512;48.552;9.380;2023-03-05T16:25:19;5.88;68.95
62464;SHT31;48512;48.552;9.380;2023-03-05T16:27:46;5.76;69.14
62464;SHT31;48512;48.552;9.380;2023-03-05T16:30:14;5.64;69.63
62464;SHT31;48512;48.552;9.380;2023-03-05T16:32:39;5.57;69.89
62464;SHT31;48512;48.552;9.380;2023-03-05T16:35:05;6.12;78.42
62464;SHT31;48512;48.552;9.380;2023-03-05T16:37:30;5.86;73.32
62464;SHT31;48512;48.552;9.380;2023-03-05T16:39:59;5.68;70.63
62464;SHT31;48512;48.552;9.380;2023-03-05T16:42:25;5.58;70.64
62464;SHT31;48512;48.552;9.380;2023-03-05T16:44:50;5.48;70.58
62464;SHT31;48512;48.552;9.380;2023-03-05T16:47:18;5.46;70.81
62464;SHT31;48512;48.552;9.380;2023-03-05T16:49:43;5.37;71.01
62464;SHT31;48512;48.552;9.380;2023-03-05T16:52:09;5.34;71.23
62464;SHT31;48512;48.552;9.380;2023-03-05T16:54:36;5.46;73.52
62464;SHT31;48512;48.552;9.380;2023-03-05T16:57:08;5.41;72.91
62464;SHT31;48512;48.552;9.380;2023-03-05T16:59:35;5.46;73.51
62464;SHT31;48512;48.552;9.380;2023-03-05T17:02:02;5.62;75.81
62464;SHT31;48512;48.552;9.380;2023-03-05T17:04:27;5.57;74.52
62464;SHT31;48512;48.552;9.380;2023-03-05T17:06:53;5.46;73.35
62464;SHT31;48512;48.552;9.380;2023-03-05T17:09:20;5.36;73.26
62464;SHT31;48512;48.552;9.380;2023-03-05T17:11:51;5.30;72.29
62464;SHT31;48512;48.552;9.380;2023-03-05T17:14:17;5.15;72.18
62464;SHT31;48512;48.552;9.380;2023-03-05T17:16:43;5.03;72.45
62464;SHT31;48512;48.552;9.380;2023-03-05T17:19:09;5.26;74.16
62464;SHT31;48512;48.552;9.380;2023-03-05T17:21:34;5.28;76.16
62464;SHT31;48512;48.552;9.380;2023-03-05T17:24:00;5.23;74.09
62464;SHT31;48512;48.552;9.380;2023-03-05T17:26:25;5.19;73.38
62464;SHT31;48512;48.552;9.380;2023-03-05T17:28:53;5.16;73.16
62464;SHT31;48512;48.552;9.380;2023-03-05T17:31:23;5.12;73.05